Time;durP1;ratioP1;P1;durP2;ratioP2;P2;SDS_P1;SDS_P2;PMS_P1;PMS_P2;Temp;Humidity;BMP_temperature;BMP_pressure;BME280_temperature;BME280_humidity;BME280_pressure;Samples;Min_cycle;Max_cycle;Signal;HPM_P1;HPM_P2
2023/05/24 08:15:23;;;;;;;1.70;0.30;;;;;;;25.94;37.99;100123.52;103703;1305;544794;-80
2023/05/24 08:17:51;;;;;;;3.10;0.40;;;;;;;25.90;37.88;100123.64;106066;1280;138119;-81
2023/05/24 08:20:19;;;;;;;1.90;0.50;;;;;;;25.89;38.10;100122.90;105639;1279;137527;-80
2023/05/24 08:22:47;;;;;;;3.50;0.50;;;;;;;25.92;38.42;100121.67;106560;1273;22656;-78
2023/05/24 08:25:17;;;;;;;1.60;0.50;;;;;;;25.96;38.26;100110.79;106305;1270;136634;-80
2023/05/24 08:27:44;;;;;;;3.40;0.30;;;;;;;26.14;38.03;100116.86;109991;1272;23097;-80
2023/05/24 08:30:13;;;;;;;0.90;0.50;;;;;;;26.24;37.62;100116.10;109238;1269;1192260;-79
2023/05/24 08:32:40;;;;;;;2.80;0.90;;;;;;;26.26;37.68;100113.89;110160;1257;137525;-78
2023/05/24 08:35:08;;;;;;;2.40;0.20;;;;;;;26.27;37.89;100114.52;110203;1264;22314;-80
2023/05/24 08:37:46;;;;;;;1.50;0.40;;;;;;;26.34;37.63;100112.70;110071;1270;139895;-74
2023/05/24 08:40:14;;;;;;;4.60;1.00;;;;;;;26.25;37.97;100106.80;110107;1270;137669;-80
2023/05/24 08:42:43;;;;;;;5.70;1.00;;;;;;;26.14;38.71;100104.13;110229;1270;22397;-79
2023/05/24 08:45:13;;;;;;;3.40;0.90;;;;;;;26.01;39.51;100106.03;110131;1260;138655;-77
2023/05/24 08:47:41;;;;;;;0.90;0.50;;;;;;;25.83;39.99;100105.90;110285;1260;22340;-80
2023/05/24 08:50:09;;;;;;;1.50;0.80;;;;;;;25.68;40.33;100100.34;109904;1272;139872;-76
2023/05/24 08:52:38;;;;;;;2.00;0.70;;;;;;;25.62;41.07;100097.63;110136;1269;138319;-82
2023/05/24 08:55:07;;;;;;;4.10;0.70;;;;;;;25.59;41.37;100095.77;110276;1260;22399;-81
2023/05/24 08:57:38;;;;;;;3.40;0.90;;;;;;;25.53;40.56;100110.04;110087;1270;137112;-79
2023/05/24 09:00:09;;;;;;;2.20;0.80;;;;;;;25.45;40.30;100119.70;110122;1271;137665;-78
2023/05/24 09:02:39;;;;;;;1.70;0.60;;;;;;;25.39;40.31;100121.13;110233;1270;22959;-78
2023/05/24 09:05:10;;;;;;;2.50;0.60;;;;;;;25.37;41.33;100115.38;110171;1269;138238;-74
2023/05/24 09:07:37;;;;;;;6.90;0.50;;;;;;;25.38;45.52;100112.75;110251;1270;22294;-75
2023/05/24 09:10:07;;;;;;;4.70;0.50;;;;;;;25.27;49.05;100112.77;110164;1270;137428;-72
2023/05/24 09:12:39;;;;;;;5.70;0.80;;;;;;;25.05;52.11;100110.65;110205;1269;137905;-81
2023/05/24 09:15:07;;;;;;;4.60;0.90;;;;;;;24.90;52.55;100109.14;110104;1269;23131;-78
2023/05/24 09:17:36;;;;;;;2.60;0.80;;;;;;;24.74;53.20;100110.02;110116;1270;138312;-80
2023/05/24 09:20:08;;;;;;;2.20;1.10;;;;;;;24.60;52.86;100116.48;110070;1271;138708;-80
2023/05/24 09:22:39;;;;;;;6.60;1.00;;;;;;;24.46;53.92;100121.38;110199;1270;22323;-82
2023/05/24 09:25:11;;;;;;;2.10;0.70;;;;;;;24.33;53.42;100124.20;109957;1270;137220;-77
2023/05/24 09:27:39;;;;;;;2.00;0.90;;;;;;;24.19;53.59;100121.11;109939;1270;22986;-75
2023/05/24 09:30:11;;;;;;;3.00;0.90;;;;;;;24.05;50.63;100118.37;110132;1259;138116;-77
2023/05/24 09:32:39;;;;;;;2.20;0.50;;;;;;;23.95;49.73;100118.63;109975;1270;139791;-77
2023/05/24 09:35:08;;;;;;;1.80;0.90;;;;;;;23.91;50.17;100122.90;110054;1270;22379;-81
2023/05/24 09:37:37;;;;;;;3.70;1.20;;;;;;;23.90;50.60;100126.77;109855;1270;137396;-79
2023/05/24 09:40:07;;;;;;;2.00;0.70;;;;;;;23.86;50.45;100121.66;109978;1270;137982;-77
2023/05/24 09:42:35;;;;;;;2.70;0.60;;;;;;;23.93;49.96;100126.80;110210;1270;22459;-82
2023/05/24 09:45:10;;;;;;;2.30;0.50;;;;;;;23.93;50.38;100126.69;110129;1270;137559;-75
2023/05/24 09:47:40;;;;;;;6.40;0.80;;;;;;;23.93;50.10;100125.29;110229;1260;22424;-75
2023/05/24 09:50:16;;;;;;;3.90;0.70;;;;;;;23.92;50.81;100134.38;110259;1270;136011;-75
2023/05/24 09:52:44;;;;;;;3.70;0.70;;;;;;;23.95;50.63;100132.45;110215;1270;137554;-76
2023/05/24 09:55:11;;;;;;;2.50;0.60;;;;;;;23.99;50.55;100135.04;109970;1264;22388;-77
2023/05/24 09:57:40;;;;;;;2.10;0.80;;;;;;;24.02;49.76;100133.81;110226;1261;138883;-80
2023/05/24 10:00:16;;;;;;;2.60;0.70;;;;;;;24.06;49.95;100130.25;110163;1270;138466;-81
2023/05/24 10:02:44;;;;;;;3.40;0.60;;;;;;;24.09;48.82;100132.34;110222;1260;22333;-75
2023/05/24 10:05:20;;;;;;;0.90;0.40;;;;;;;23.93;48.27;100117.21;109901;1272;140153;-71
2023/05/24 10:07:48;;;;;;;3.60;0.60;;;;;;;23.89;48.14;100117.84;110216;1259;22349;-78
2023/05/24 10:10:15;;;;;;;5.50;1.20;;;;;;;23.96;47.45;100132.38;110117;1270;139254;-77
2023/05/24 10:12:45;;;;;;;1.70;0.80;;;;;;;23.96;46.33;100130.48;110015;1270;139252;-75
2023/05/24 10:15:13;;;;;;;1.20;0.70;;;;;;;23.98;45.68;100129.98;110003;1269;22313;-74
2023/05/24 10:17:40;;;;;;;2.00;0.50;;;;;;;24.01;45.64;100137.42;110084;1259;138761;-81
2023/05/24 10:20:11;;;;;;;2.00;0.60;;;;;;;24.00;46.00;100133.77;109898;1270;137689;-80
2023/05/24 10:22:43;;;;;;;2.20;0.70;;;;;;;24.01;45.53;100135.06;110106;1272;22312;-79
2023/05/24 10:25:20;;;;;;;1.20;0.30;;;;;;;24.06;45.34;100134.98;109974;1270;137796;-72
2023/05/24 10:27:51;;;;;;;2.00;0.40;;;;;;;24.11;45.05;100141.32;110146;1270;23031;-75
2023/05/24 10:30:30;;;;;;;5.40;0.50;;;;;;;24.15;45.02;100136.50;110028;1270;137501;-75
2023/05/24 10:33:00;;;;;;;3.10;1.40;;;;;;;24.17;44.52;100133.17;110047;1270;139392;-74
2023/05/24 10:35:28;;;;;;;5.30;0.90;;;;;;;24.14;44.48;100133.95;110167;1270;22323;-74
2023/05/24 10:37:56;;;;;;;4.30;0.70;;;;;;;24.14;44.49;100132.70;109976;1270;137605;-77
2023/05/24 10:40:24;;;;;;;0.60;0.60;;;;;;;24.16;44.21;100134.77;110125;1269;139411;-72
2023/05/24 10:42:55;;;;;;;1.60;0.50;;;;;;;24.17;44.05;100133.92;110246;1270;22786;-73
2023/05/24 10:45:51;;;;;;;3.40;0.60;;;;;;;24.21;44.53;100136.40;110131;1256;138946;-76
2023/05/24 10:48:22;;;;;;;0.70;0.50;;;;;;;24.22;44.29;100145.27;110108;1269;138584;-70
2023/05/24 10:50:49;;;;;;;1.70;0.40;;;;;;;24.20;44.53;100147.73;110220;1270;22452;-79
2023/05/24 10:53:19;;;;;;;2.30;0.70;;;;;;;24.17;44.09;100151.41;110157;1270;137755;-74
2023/05/24 10:55:53;;;;;;;3.50;0.50;;;;;;;24.09;44.29;100144.83;110252;1269;23041;-78
2023/05/24 10:58:27;;;;;;;4.60;1.10;;;;;;;24.03;44.88;100148.73;110096;1269;137542;-79
2023/05/24 11:00:54;;;;;;;1.60;0.50;;;;;;;23.98;44.37;100154.69;110137;1269;138711;-76
2023/05/24 11:03:23;;;;;;;0.90;0.30;;;;;;;23.95;44.33;100167.63;110303;1269;22411;-75
2023/05/24 11:05:53;;;;;;;2.40;0.50;;;;;;;23.92;44.46;100170.36;110052;1270;137721;-74
2023/05/24 11:08:34;;;;;;;4.20;0.40;;;;;;;23.92;44.66;100168.29;110004;1261;139017;-79
2023/05/24 11:11:15;;;;;;;1.10;0.50;;;;;;;23.90;44.89;100172.17;110128;1269;22342;-75
2023/05/24 11:13:57;;;;;;;1.50;0.60;;;;;;;23.91;44.42;100170.42;110090;1270;137653;-74
2023/05/24 11:16:38;;;;;;;1.50;0.60;;;;;;;23.92;44.40;100164.16;110125;1270;137885;-75
2023/05/24 11:19:12;;;;;;;2.70;0.40;;;;;;;23.98;44.12;100158.45;110130;1268;22307;-73
2023/05/24 11:21:42;;;;;;;2.80;0.40;;;;;;;23.85;43.95;100161.13;110028;1270;137719;-76
2023/05/24 11:24:11;;;;;;;1.50;0.20;;;;;;;23.72;42.81;100160.31;110083;1269;138788;-85
2023/05/24 11:26:39;;;;;;;2.30;0.40;;;;;;;23.62;42.24;100152.48;110236;1256;22326;-75
2023/05/24 11:29:06;;;;;;;1.90;0.30;;;;;;;23.68;41.82;100164.20;110115;1269;137639;-75
2023/05/24 11:31:38;;;;;;;3.20;1.00;;;;;;;23.72;41.66;100155.58;110263;1270;23135;-74
2023/05/24 11:34:10;;;;;;;0.90;0.30;;;;;;;23.75;42.97;100150.92;110131;1269;137300;-74
2023/05/24 11:36:38;;;;;;;2.60;0.40;;;;;;;23.80;43.31;100150.23;110095;1269;140237;-73
2023/05/24 11:39:09;;;;;;;1.30;0.20;;;;;;;23.76;43.50;100149.80;110252;1259;22973;-74
2023/05/24 11:41:37;;;;;;;1.60;0.60;;;;;;;23.75;43.27;100145.70;110153;1268;139423;-70
2023/05/24 11:44:06;;;;;;;1.00;0.50;;;;;;;23.74;43.20;100140.94;110158;1269;137590;-76
2023/05/24 11:46:34;;;;;;;3.50;0.50;;;;;;;23.80;42.82;100140.86;110067;1270;22342;-75
2023/05/24 11:49:02;;;;;;;5.00;1.30;;;;;;;23.87;42.41;100138.54;110140;1269;138124;-76
2023/05/24 11:51:32;;;;;;;3.00;0.60;;;;;;;23.91;42.17;100136.34;110164;1269;23145;-70
2023/05/24 11:54:00;;;;;;;0.80;0.40;;;;;;;23.96;42.26;100130.27;110119;1269;137598;-71
2023/05/24 11:56:31;;;;;;;0.60;0.40;;;;;;;23.94;42.68;100129.25;110121;1269;138478;-84
2023/05/24 11:59:24;;;;;;;5.90;0.40;;;;;;;23.97;41.84;100130.74;110219;1268;22335;-78
2023/05/24 12:02:00;;;;;;;0.60;0.40;;;;;;;23.99;42.30;100130.25;110020;1265;138975;-77
2023/05/24 12:04:29;;;;;;;2.40;0.60;;;;;;;24.03;42.60;100122.59;110138;1269;138308;-70
2023/05/24 12:06:57;;;;;;;2.80;0.50;;;;;;;24.12;43.00;100127.10;110270;1269;22340;-79
2023/05/24 12:09:25;;;;;;;4.50;0.90;;;;;;;24.18;43.01;100121.22;110130;1269;137858;-74
2023/05/24 12:11:53;;;;;;;8.20;0.90;;;;;;;24.16;42.93;100116.55;110269;1259;22209;-74
2023/05/24 12:14:25;;;;;;;3.30;0.30;;;;;;;24.15;43.21;100116.51;109991;1268;137269;-71
2023/05/24 12:16:57;;;;;;;2.00;0.40;;;;;;;24.22;42.85;100120.81;110135;1269;137374;-74
2023/05/24 12:19:32;;;;;;;0.70;0.40;;;;;;;24.29;42.64;100121.79;110330;1259;22354;-84
2023/05/24 12:22:04;;;;;;;2.10;0.30;;;;;;;24.34;42.57;100119.19;109901;1264;137827;-69
2023/05/24 12:24:33;;;;;;;1.70;0.50;;;;;;;24.35;42.80;100114.17;109974;1259;138240;-75
2023/05/24 12:27:07;;;;;;;2.00;0.50;;;;;;;24.38;42.78;100112.57;110228;1269;23100;-79
2023/05/24 12:29:39;;;;;;;1.60;0.40;;;;;;;24.43;42.00;100113.66;110074;1269;138073;-73
2023/05/24 12:32:13;;;;;;;1.10;0.30;;;;;;;24.50;40.57;100115.27;109904;1263;138088;-73
2023/05/24 12:34:43;;;;;;;0.90;0.20;;;;;;;24.54;39.08;100114.58;110237;1256;22437;-81
2023/05/24 12:37:12;;;;;;;0.90;0.40;;;;;;;24.54;38.19;100119.80;110048;1256;140085;-75
2023/05/24 12:39:41;;;;;;;2.00;0.70;;;;;;;24.49;38.34;100109.86;110249;1269;22322;-74
2023/05/24 12:42:11;;;;;;;1.60;0.50;;;;;;;24.46;38.20;100106.52;110085;1270;138607;-79
2023/05/24 12:44:39;;;;;;;3.20;0.60;;;;;;;24.48;38.21;100107.73;110133;1268;137965;-77
2023/05/24 12:47:07;;;;;;;3.10;0.40;;;;;;;24.47;38.44;100105.46;110254;1269;24396;-74
2023/05/24 12:49:35;;;;;;;2.10;0.20;;;;;;;24.50;38.18;100100.53;110190;1269;137495;-77
2023/05/24 12:52:03;;;;;;;1.20;0.30;;;;;;;24.55;38.17;100097.30;110004;1267;138110;-69
2023/05/24 12:54:31;;;;;;;2.10;0.30;;;;;;;24.54;38.46;100104.86;110256;1270;22349;-67
2023/05/24 12:56:58;;;;;;;1.50;0.50;;;;;;;24.63;37.94;100100.54;109848;1269;137724;-71
2023/05/24 12:59:27;;;;;;;2.40;0.50;;;;;;;24.68;38.42;100092.42;110258;1268;22345;-67
2023/05/24 13:01:55;;;;;;;0.80;0.60;;;;;;;24.71;39.68;100092.93;110165;1269;137629;-67
2023/05/24 13:04:24;;;;;;;1.80;0.60;;;;;;;24.72;40.63;100091.06;110226;1268;139150;-62
2023/05/24 13:06:52;;;;;;;2.60;0.40;;;;;;;24.75;40.18;100087.02;109987;1272;22320;-63
2023/05/24 13:09:21;;;;;;;1.60;0.50;;;;;;;24.77;39.80;100085.58;110031;1270;137822;-65
2023/05/24 13:11:51;;;;;;;2.70;0.40;;;;;;;24.78;40.02;100083.04;110283;1269;22349;-66
2023/05/24 13:14:18;;;;;;;1.70;0.70;;;;;;;24.78;40.23;100081.09;110063;1269;138416;-66
2023/05/24 13:16:47;;;;;;;2.40;0.40;;;;;;;24.76;39.97;100080.56;110223;1257;138166;-63
2023/05/24 13:19:15;;;;;;;2.80;0.70;;;;;;;24.74;39.94;100078.85;110211;1268;22320;-70
2023/05/24 13:21:43;;;;;;;3.10;0.30;;;;;;;24.72;40.23;100075.16;110207;1269;138837;-67
2023/05/24 13:24:14;;;;;;;1.50;0.60;;;;;;;24.67;40.58;100078.38;110047;1267;140434;-68
2023/05/24 13:26:43;;;;;;;1.90;0.50;;;;;;;24.63;40.95;100079.27;110221;1269;22942;-68
2023/05/24 13:29:10;;;;;;;2.40;0.60;;;;;;;24.61;41.07;100075.26;110167;1269;139959;-70
2023/05/24 13:31:40;;;;;;;3.00;0.40;;;;;;;24.62;41.19;100068.13;110347;1267;22808;-74
2023/05/24 13:34:09;;;;;;;2.80;0.80;;;;;;;24.63;41.25;100066.80;110174;1269;139535;-74
2023/05/24 13:36:37;;;;;;;1.10;0.60;;;;;;;24.65;41.32;100064.22;110183;1269;141806;-76
2023/05/24 13:39:08;;;;;;;6.00;1.20;;;;;;;24.71;41.56;100065.73;110197;1269;22344;-73
2023/05/24 13:41:39;;;;;;;1.80;0.90;;;;;;;24.79;41.39;100070.02;109869;1269;138059;-75
2023/05/24 13:44:08;;;;;;;5.30;0.50;;;;;;;24.87;41.28;100070.08;110220;1267;137586;-84
2023/05/24 13:46:56;;;;;;;3.10;0.60;;;;;;;24.94;40.77;100068.70;110410;1256;22360;-77
2023/05/24 13:49:23;;;;;;;1.40;0.50;;;;;;;24.97;40.36;100071.77;109951;1269;137575;-77
2023/05/24 13:51:52;;;;;;;1.80;1.00;;;;;;;25.01;40.15;100072.10;110298;1269;23100;-80
2023/05/24 13:54:23;;;;;;;4.50;0.70;;;;;;;25.08;40.04;100088.98;110177;1269;137389;-79
2023/05/24 13:56:51;;;;;;;4.70;0.50;;;;;;;25.07;39.11;100078.69;110179;1269;138789;-72
2023/05/24 13:59:18;;;;;;;3.30;0.60;;;;;;;25.17;38.59;100079.00;110302;1268;23209;-75
2023/05/24 14:01:46;;;;;;;1.00;0.60;;;;;;;25.23;38.63;100076.64;110222;1269;139123;-74
2023/05/24 14:04:15;;;;;;;1.90;1.20;;;;;;;25.28;38.78;100075.23;110083;1261;138242;-73
2023/05/24 14:06:42;;;;;;;2.20;0.70;;;;;;;25.37;38.90;100080.41;110214;1268;22351;-74
2023/05/24 14:09:10;;;;;;;3.40;0.40;;;;;;;25.44;38.80;100077.69;110205;1268;139689;-78
2023/05/24 14:11:37;;;;;;;2.10;0.50;;;;;;;25.48;38.72;100078.77;110251;1268;22777;-76
2023/05/24 14:14:05;;;;;;;3.60;0.70;;;;;;;25.51;38.51;100070.67;110295;1268;139486;-77
2023/05/24 14:16:35;;;;;;;4.60;1.20;;;;;;;25.48;37.40;100071.75;110088;1269;138869;-80
2023/05/24 14:19:03;;;;;;;4.10;1.20;;;;;;;25.46;37.06;100067.35;110120;1259;22162;-81
2023/05/24 14:21:31;;;;;;;4.40;1.00;;;;;;;25.44;36.93;100064.98;110153;1268;137999;-77
2023/05/24 14:23:58;;;;;;;1.80;0.70;;;;;;;25.42;37.04;100064.56;110395;1268;22140;-80
2023/05/24 14:26:26;;;;;;;4.00;0.70;;;;;;;25.43;37.43;100071.96;110150;1268;137673;-76
2023/05/24 14:28:54;;;;;;;2.20;0.70;;;;;;;25.46;37.39;100081.53;110271;1268;137829;-78
2023/05/24 14:31:23;;;;;;;2.60;1.10;;;;;;;25.48;36.65;100079.39;110219;1254;22322;-74
2023/05/24 14:33:54;;;;;;;2.40;0.50;;;;;;;25.48;36.03;100077.04;110087;1268;137654;-75
2023/05/24 14:36:29;;;;;;;1.30;0.60;;;;;;;25.48;36.17;100080.25;109978;1270;138061;-76
2023/05/24 14:38:56;;;;;;;3.00;0.80;;;;;;;25.47;36.92;100088.23;110331;1254;22375;-79
2023/05/24 14:41:25;;;;;;;3.30;0.60;;;;;;;25.37;37.46;100086.18;110177;1268;138122;-75
2023/05/24 14:43:53;;;;;;;1.80;0.70;;;;;;;25.34;37.96;100090.64;110202;1269;22428;-75
2023/05/24 14:46:20;;;;;;;4.40;0.80;;;;;;;25.25;38.10;100085.62;110191;1268;138840;-74
2023/05/24 14:48:48;;;;;;;0.80;0.50;;;;;;;25.16;38.18;100087.58;110099;1271;138857;-75
2023/05/24 14:51:19;;;;;;;2.30;0.40;;;;;;;25.05;38.18;100079.47;110176;1269;22254;-77
2023/05/24 14:53:47;;;;;;;4.20;1.00;;;;;;;24.97;38.42;100072.09;110123;1259;138842;-76
2023/05/24 14:56:15;;;;;;;5.70;0.70;;;;;;;24.93;38.77;100081.52;110162;1269;138441;-75
2023/05/24 14:58:43;;;;;;;3.40;0.80;;;;;;;24.86;38.94;100081.98;110329;1269;23214;-78
2023/05/24 15:01:10;;;;;;;1.10;0.70;;;;;;;24.80;38.09;100077.20;110263;1268;139168;-78
2023/05/24 15:03:37;;;;;;;2.20;0.30;;;;;;;24.74;37.92;100076.06;110196;1259;22344;-78
2023/05/24 15:06:05;;;;;;;1.60;0.80;;;;;;;24.72;37.17;100080.34;110248;1268;137382;-83
2023/05/24 15:08:34;;;;;;;1.30;0.40;;;;;;;24.70;36.88;100083.58;110024;1268;137999;-76
2023/05/24 15:11:01;;;;;;;1.00;0.50;;;;;;;24.70;36.86;100081.51;110262;1268;22179;-78
2023/05/24 15:13:29;;;;;;;2.30;0.50;;;;;;;24.74;37.29;100084.95;110182;1268;136527;-77
2023/05/24 15:15:59;;;;;;;0.80;0.50;;;;;;;24.76;37.93;100080.13;110371;1269;22209;-76
2023/05/24 15:18:29;;;;;;;1.50;0.60;;;;;;;24.78;39.07;100080.70;110238;1268;137320;-77
2023/05/24 15:20:57;;;;;;;3.70;0.70;;;;;;;24.78;39.98;100077.27;110209;1268;138216;-76
2023/05/24 15:23:25;;;;;;;1.90;0.60;;;;;;;24.77;40.16;100077.07;110347;1268;22311;-80
2023/05/24 15:25:53;;;;;;;1.10;0.40;;;;;;;24.77;40.47;100075.15;110211;1269;139840;-76
2023/05/24 15:28:21;;;;;;;3.40;0.70;;;;;;;24.75;40.95;100074.95;110274;1269;139465;-78
2023/05/24 15:30:53;;;;;;;2.50;0.50;;;;;;;24.73;41.55;100072.95;110331;1268;22094;-77
2023/05/24 15:33:20;;;;;;;3.30;0.70;;;;;;;24.69;42.04;100071.27;110301;1268;137460;-76
2023/05/24 15:35:48;;;;;;;2.20;0.50;;;;;;;24.66;42.42;100074.89;110133;1269;22187;-72
2023/05/24 15:38:17;;;;;;;3.20;0.40;;;;;;;24.60;42.77;100082.24;110175;1268;138117;-79
2023/05/24 15:40:45;;;;;;;2.30;0.60;;;;;;;24.49;43.24;100085.78;110064;1270;138951;-71
2023/05/24 15:43:14;;;;;;;3.90;0.80;;;;;;;24.41;42.85;100095.66;110303;1269;23148;-75
2023/05/24 15:45:42;;;;;;;2.00;0.60;;;;;;;24.33;42.46;100091.80;110237;1268;137927;-75
2023/05/24 15:48:11;;;;;;;2.00;0.40;;;;;;;24.27;42.19;100094.96;110086;1259;138794;-76
2023/05/24 15:50:39;;;;;;;3.20;0.50;;;;;;;24.25;41.59;100104.34;110379;1269;23188;-74
2023/05/24 15:53:26;;;;;;;3.00;0.70;;;;;;;24.24;40.34;100111.98;110138;1269;138308;-76
2023/05/24 15:55:56;;;;;;;1.40;0.20;;;;;;;24.20;40.29;100117.35;110030;1269;22402;-74
2023/05/24 15:58:23;;;;;;;2.80;0.40;;;;;;;24.13;40.69;100115.71;110109;1263;138259;-75
2023/05/24 16:00:52;;;;;;;4.60;0.40;;;;;;;24.09;40.93;100113.50;110169;1265;137666;-77
2023/05/24 16:03:19;;;;;;;21.70;0.80;;;;;;;24.07;41.76;100117.50;110329;1269;22150;-75
2023/05/24 16:05:48;;;;;;;0.60;0.50;;;;;;;24.03;42.73;100115.95;110155;1269;137907;-75
2023/05/24 16:08:15;;;;;;;3.40;0.60;;;;;;;23.98;43.22;100118.02;110137;1268;140781;-73
2023/05/24 16:10:44;;;;;;;2.50;0.40;;;;;;;23.94;44.06;100127.99;110298;1268;22288;-73
2023/05/24 16:13:11;;;;;;;4.40;0.80;;;;;;;23.89;44.83;100122.20;110199;1269;138548;-75
2023/05/24 16:15:41;;;;;;;5.90;0.90;;;;;;;23.84;45.58;100124.85;110199;1268;22345;-72
2023/05/24 16:18:08;;;;;;;1.90;0.50;;;;;;;23.78;46.20;100123.87;110259;1260;136453;-76
2023/05/24 16:20:36;;;;;;;3.30;0.70;;;;;;;23.72;46.42;100120.64;110012;1268;139667;-73
2023/05/24 16:23:03;;;;;;;3.40;0.70;;;;;;;23.67;46.65;100115.66;110363;1270;22377;-73
2023/05/24 16:25:31;;;;;;;2.70;0.80;;;;;;;23.63;46.93;100123.41;109961;1270;138656;-74
2023/05/24 16:27:59;;;;;;;1.60;0.60;;;;;;;23.63;46.86;100124.99;110354;1269;22339;-74
2023/05/24 16:30:26;;;;;;;0.80;0.50;;;;;;;23.59;47.09;100115.21;110073;1270;138961;-74
2023/05/24 16:32:54;;;;;;;2.10;0.90;;;;;;;23.55;47.41;100115.35;110185;1269;137109;-75
2023/05/24 16:35:21;;;;;;;5.80;0.60;;;;;;;23.53;47.58;100114.98;110285;1269;23064;-71
2023/05/24 16:37:50;;;;;;;1.20;0.50;;;;;;;23.51;47.51;100114.45;110213;1270;138943;-71
2023/05/24 16:40:17;;;;;;;0.80;0.60;;;;;;;23.49;47.45;100112.06;110209;1268;138170;-75
2023/05/24 16:42:45;;;;;;;3.00;0.70;;;;;;;23.48;47.57;100112.34;110337;1259;22378;-72
2023/05/24 16:45:12;;;;;;;1.80;0.50;;;;;;;23.48;47.83;100117.77;110208;1269;138498;-72
2023/05/24 16:47:40;;;;;;;2.90;0.40;;;;;;;23.46;47.78;100124.20;110144;1269;22362;-74
2023/05/24 16:50:13;;;;;;;3.80;1.20;;;;;;;23.38;47.97;100114.77;110054;1268;140016;-74
2023/05/24 16:52:42;;;;;;;3.70;0.60;;;;;;;23.42;47.69;100125.80;110137;1257;138353;-70
2023/05/24 16:55:14;;;;;;;2.80;0.50;;;;;;;23.38;47.65;100124.45;110138;1272;22315;-74
2023/05/24 16:57:42;;;;;;;5.20;0.50;;;;;;;23.34;47.86;100128.61;110192;1268;139710;-72
2023/05/24 17:00:09;;;;;;;2.40;1.00;;;;;;;23.31;47.94;100135.84;110068;1269;139141;-70
2023/05/24 17:02:37;;;;;;;3.60;0.60;;;;;;;23.28;48.03;100135.64;110353;1268;22932;-72
2023/05/24 17:05:05;;;;;;;2.20;0.60;;;;;;;23.23;47.87;100136.92;109969;1268;137893;-74
2023/05/24 17:07:33;;;;;;;3.40;0.60;;;;;;;23.17;47.56;100133.13;110279;1268;22644;-73
2023/05/24 17:10:00;;;;;;;2.30;0.80;;;;;;;23.20;46.82;100143.95;110176;1259;138881;-67
2023/05/24 17:12:28;;;;;;;6.10;0.60;;;;;;;23.19;46.47;100146.12;110082;1269;138437;-67
2023/05/24 17:14:55;;;;;;;2.30;0.50;;;;;;;23.18;46.33;100147.00;110227;1269;22361;-66
2023/05/24 17:17:23;;;;;;;2.20;0.60;;;;;;;23.16;45.95;100151.47;110208;1257;138998;-69
2023/05/24 17:19:51;;;;;;;0.40;0.20;;;;;;;23.13;45.77;100154.46;110265;1269;23509;-73
2023/05/24 17:22:19;;;;;;;2.50;0.30;;;;;;;23.10;45.82;100150.02;110194;1257;139335;-72
2023/05/24 17:24:46;;;;;;;0.40;0.40;;;;;;;23.06;46.05;100155.52;110143;1269;138090;-76
2023/05/24 17:27:13;;;;;;;3.30;0.40;;;;;;;23.04;46.15;100158.40;110260;1269;22965;-74
2023/05/24 17:29:43;;;;;;;3.90;0.40;;;;;;;22.97;46.42;100152.15;110153;1269;138515;-74
2023/05/24 17:32:10;;;;;;;0.80;0.70;;;;;;;22.99;46.60;100161.70;110181;1269;140244;-74
2023/05/24 17:34:38;;;;;;;1.40;0.80;;;;;;;22.97;46.97;100162.46;110216;1264;22443;-73
2023/05/24 17:37:05;;;;;;;0.80;0.40;;;;;;;22.95;47.06;100164.15;110155;1269;137483;-71
2023/05/24 17:39:32;;;;;;;0.80;0.50;;;;;;;22.89;47.45;100166.73;110255;1269;22990;-73
2023/05/24 17:41:59;;;;;;;1.10;0.30;;;;;;;22.83;47.57;100173.58;110190;1269;139378;-72
2023/05/24 17:44:27;;;;;;;1.10;0.30;;;;;;;22.77;47.78;100172.39;110123;1253;140675;-73
2023/05/24 17:46:56;;;;;;;1.20;0.40;;;;;;;22.68;47.94;100178.21;110090;1268;23052;-73
2023/05/24 17:49:23;;;;;;;0.90;0.40;;;;;;;22.60;48.55;100184.52;110179;1268;138944;-74
2023/05/24 17:51:51;;;;;;;6.50;0.60;;;;;;;22.51;48.93;100191.47;110247;1262;22345;-73
2023/05/24 17:54:18;;;;;;;4.10;0.60;;;;;;;22.44;49.32;100192.77;110161;1270;138715;-73
2023/05/24 17:56:45;;;;;;;2.90;0.50;;;;;;;22.36;49.78;100192.33;110034;1268;138215;-74
2023/05/24 17:59:13;;;;;;;2.80;0.90;;;;;;;22.31;50.48;100196.02;110314;1269;22300;-75
2023/05/24 18:01:42;;;;;;;0.80;0.70;;;;;;;22.24;51.43;100205.59;110202;1270;137839;-75
2023/05/24 18:04:10;;;;;;;3.10;1.00;;;;;;;22.12;52.02;100210.57;109863;1260;138199;-72
2023/05/24 18:06:38;;;;;;;1.90;0.60;;;;;;;22.03;52.27;100217.15;110271;1270;23050;-73
2023/05/24 18:09:05;;;;;;;3.40;0.80;;;;;;;21.96;52.70;100218.83;110042;1268;137753;-74
2023/05/24 18:11:33;;;;;;;3.00;0.40;;;;;;;21.92;53.04;100220.44;110333;1269;22199;-73
2023/05/24 18:14:02;;;;;;;0.90;0.90;;;;;;;21.89;53.27;100222.66;110193;1269;137696;-74
2023/05/24 18:16:30;;;;;;;1.90;0.80;;;;;;;21.86;53.50;100223.41;110210;1269;138023;-74
2023/05/24 18:18:58;;;;;;;2.20;1.00;;;;;;;21.82;53.76;100224.59;110023;1268;22328;-75
2023/05/24 18:21:26;;;;;;;1.90;0.60;;;;;;;21.78;53.80;100222.96;110064;1270;137817;-74
2023/05/24 18:23:53;;;;;;;6.10;0.90;;;;;;;21.76;53.81;100227.77;110328;1268;22319;-75
2023/05/24 18:26:21;;;;;;;4.10;1.20;;;;;;;21.76;53.91;100235.30;110032;1270;138824;-74
2023/05/24 18:28:48;;;;;;;0.70;0.60;;;;;;;21.74;54.07;100236.55;110160;1268;139326;-74
2023/05/24 18:31:16;;;;;;;1.60;0.50;;;;;;;21.71;54.13;100238.70;110202;1260;22318;-71
2023/05/24 18:33:43;;;;;;;3.50;1.10;;;;;;;21.70;54.24;100240.27;110177;1270;138116;-73
2023/05/24 18:36:11;;;;;;;1.60;0.80;;;;;;;21.69;54.34;100246.02;110061;1272;139430;-73
2023/05/24 18:38:40;;;;;;;3.40;0.90;;;;;;;21.61;54.40;100238.48;110032;1270;22974;-72
2023/05/24 18:41:08;;;;;;;1.40;1.00;;;;;;;21.67;54.47;100250.95;110156;1269;137582;-74
2023/05/24 18:43:36;;;;;;;2.90;1.20;;;;;;;21.66;54.78;100249.26;110128;1270;22963;-72
2023/05/24 18:46:04;;;;;;;1.40;1.00;;;;;;;21.64;54.92;100249.95;109973;1267;138094;-72
2023/05/24 18:48:31;;;;;;;2.40;0.70;;;;;;;21.61;55.12;100247.23;110206;1269;139273;-77
2023/05/24 18:50:59;;;;;;;1.70;0.90;;;;;;;21.58;55.33;100244.07;110282;1269;22321;-74
2023/05/24 18:53:26;;;;;;;2.80;1.40;;;;;;;21.56;55.57;100242.44;109951;1270;137703;-73
2023/05/24 18:55:53;;;;;;;5.00;1.00;;;;;;;21.53;55.88;100245.14;110049;1270;22312;-74
2023/05/24 18:58:21;;;;;;;4.30;1.10;;;;;;;21.44;56.32;100235.91;110039;1262;138677;-77
2023/05/24 19:00:49;;;;;;;3.00;1.00;;;;;;;21.43;56.74;100239.48;110136;1269;139708;-75
2023/05/24 19:03:16;;;;;;;4.00;0.90;;;;;;;21.38;57.00;100237.21;110137;1262;22352;-74
2023/05/24 19:05:44;;;;;;;1.30;1.20;;;;;;;21.34;57.37;100238.33;110012;1270;137749;-78
2023/05/24 19:08:12;;;;;;;1.60;1.20;;;;;;;21.32;57.66;100236.63;110249;1268;137737;-76
2023/05/24 19:10:40;;;;;;;3.50;1.10;;;;;;;21.30;57.99;100242.96;110136;1263;23430;-74
2023/05/24 19:13:07;;;;;;;5.10;1.40;;;;;;;21.28;58.09;100253.19;109994;1268;139110;-73
2023/05/24 19:15:38;;;;;;;10.00;1.40;;;;;;;21.26;58.23;100257.25;110181;1269;23127;-75
2023/05/24 19:18:05;;;;;;;2.00;1.40;;;;;;;21.22;58.50;100259.94;109845;1262;138071;-74
2023/05/24 19:20:32;;;;;;;4.80;1.40;;;;;;;21.18;58.47;100261.59;110322;1257;137520;-75
2023/05/24 19:23:00;;;;;;;1.90;1.00;;;;;;;21.07;58.48;100249.64;110239;1260;22259;-72
2023/05/24 19:25:29;;;;;;;1.80;1.10;;;;;;;20.96;58.82;100236.40;110064;1273;139767;-74
2023/05/24 19:27:56;;;;;;;1.60;1.10;;;;;;;20.97;58.95;100244.27;110200;1273;22242;-72
2023/05/24 19:30:26;;;;;;;1.10;0.90;;;;;;;20.93;59.00;100241.08;110099;1276;136254;-72
2023/05/24 19:32:54;;;;;;;3.80;0.70;;;;;;;20.89;58.97;100245.88;110246;1270;138677;-75
2023/05/24 19:35:22;;;;;;;1.20;0.70;;;;;;;20.93;58.77;100260.87;110179;1275;22343;-77